Time;durP1;ratioP1;P1;durP2;ratioP2;P2;SDS_P1;SDS_P2;PMS_P1;PMS_P2;Temp;Humidity;BMP_temperature;BMP_pressure;BME280_temperature;BME280_humidity;BME280_pressure;Samples;Min_cycle;Max_cycle;Signal;HPM_P1;HPM_P2
2022/08/07 00:00:52;;;;;;;1.40;1.30;;;24.90;39.40;;;;;;6158921;23;20397;-86
2022/08/07 00:03:22;;;;;;;2.17;1.10;;;24.90;39.30;;;;;;6156931;23;20490;-87
2022/08/07 00:05:52;;;;;;;1.80;1.30;;;24.80;39.20;;;;;;6158924;23;20404;-88
2022/08/07 00:08:21;;;;;;;2.70;1.43;;;24.80;39.20;;;;;;6157860;23;20435;-86
2022/08/07 00:10:51;;;;;;;1.93;1.37;;;24.90;39.40;;;;;;6158957;23;20883;-88
2022/08/07 00:13:25;;;;;;;1.27;1.17;;;24.80;39.20;;;;;;6156936;23;20432;-86
2022/08/07 00:15:54;;;;;;;1.80;1.70;;;24.90;39.30;;;;;;6158004;23;20918;-88
2022/08/07 00:18:24;;;;;;;1.80;1.37;;;24.90;39.30;;;;;;6157046;23;20433;-88
2022/08/07 00:20:54;;;;;;;2.20;1.20;;;24.80;39.20;;;;;;6183022;23;20389;-87
2022/08/07 00:23:25;;;;;;;1.30;1.20;;;24.80;39.20;;;;;;6182244;23;20436;-88
2022/08/07 00:25:58;;;;;;;2.27;1.47;;;24.80;39.20;;;;;;6158491;23;20453;-88
2022/08/07 00:28:42;;;;;;;1.50;1.40;;;24.80;39.20;;;;;;6157114;23;21021;-88
2022/08/07 00:31:24;;;;;;;1.93;1.03;;;24.80;39.20;;;;;;6158582;23;20369;-86
2022/08/07 00:34:04;;;;;;;1.93;1.30;;;24.80;39.20;;;;;;6157305;23;20424;-87
2022/08/07 00:36:36;;;;;;;1.80;1.20;;;24.80;39.20;;;;;;6183144;23;20480;-86
2022/08/07 00:39:11;;;;;;;1.50;1.40;;;24.80;39.20;;;;;;6157832;23;20503;-87
2022/08/07 00:41:57;;;;;;;2.50;1.13;;;24.80;39.20;;;;;;6157686;23;20832;-88
2022/08/07 00:44:32;;;;;;;1.23;1.10;;;24.80;39.20;;;;;;6182486;23;20409;-87
2022/08/07 00:47:00;;;;;;;1.23;1.13;;;24.80;39.20;;;;;;6157082;23;20495;-88
2022/08/07 00:49:29;;;;;;;1.77;1.10;;;24.80;39.20;;;;;;6157786;23;20381;-88
2022/08/07 00:52:17;;;;;;;1.83;1.20;;;24.80;39.20;;;;;;6157229;23;20425;-87
2022/08/07 00:54:47;;;;;;;1.13;0.97;;;24.80;39.20;;;;;;6158255;23;20412;-88
2022/08/07 00:57:23;;;;;;;2.77;1.37;;;24.80;39.20;;;;;;6183982;23;20428;-87
2022/08/07 00:59:53;;;;;;;1.67;1.40;;;24.80;39.30;;;;;;6157722;23;20377;-88
2022/08/07 01:02:22;;;;;;;1.50;1.40;;;24.80;39.20;;;;;;6183391;23;20809;-88
2022/08/07 01:04:57;;;;;;;3.00;1.53;;;24.80;39.20;;;;;;6157833;23;20430;-88
2022/08/07 01:07:28;;;;;;;1.50;1.40;;;24.80;39.20;;;;;;6157324;23;20423;-87
2022/08/07 01:09:58;;;;;;;2.20;1.13;;;24.80;39.20;;;;;;6158397;23;20385;-88
2022/08/07 01:12:41;;;;;;;1.57;1.10;;;24.80;39.20;;;;;;6156518;23;20452;-87
2022/08/07 01:15:21;;;;;;;2.30;1.60;;;24.80;39.20;;;;;;6157809;23;20641;-87
2022/08/07 01:18:03;;;;;;;1.90;1.60;;;24.80;39.20;;;;;;6156774;23;20451;-86
2022/08/07 01:20:44;;;;;;;2.07;1.60;;;24.70;39.10;;;;;;6157924;23;20369;-87
2022/08/07 01:23:28;;;;;;;1.70;1.50;;;24.80;39.20;;;;;;6181772;23;20437;-87
2022/08/07 01:26:08;;;;;;;2.07;1.53;;;24.70;39.10;;;;;;6157830;23;20383;-87
2022/08/07 01:28:44;;;;;;;2.83;1.77;;;24.70;39.10;;;;;;6157262;23;20934;-86
2022/08/07 01:31:16;;;;;;;2.07;1.40;;;24.70;39.10;;;;;;6157403;23;20439;-88
2022/08/07 01:33:47;;;;;;;1.80;1.60;;;24.70;39.20;;;;;;6156096;23;20486;-85
2022/08/07 01:36:29;;;;;;;1.67;1.57;;;24.70;39.20;;;;;;6182328;23;20421;-85
2022/08/07 01:39:05;;;;;;;1.53;1.30;;;24.70;39.40;;;;;;6157019;23;20439;-89
2022/08/07 01:41:42;;;;;;;1.83;1.60;;;24.70;39.40;;;;;;6157425;23;20495;-88
2022/08/07 01:44:31;;;;;;;2.70;1.40;;;24.70;39.50;;;;;;6157264;23;20404;-87
2022/08/07 01:47:02;;;;;;;1.67;1.57;;;24.70;39.30;;;;;;6181510;23;20413;-87
2022/08/07 01:49:51;;;;;;;1.47;1.37;;;24.70;39.10;;;;;;6156915;23;20393;-86
2022/08/07 01:52:26;;;;;;;2.20;1.43;;;24.70;39.10;;;;;;6181530;23;20443;-87
2022/08/07 01:54:58;;;;;;;2.40;1.60;;;24.70;39.10;;;;;;6157519;23;20391;-87
2022/08/07 01:57:33;;;;;;;1.67;1.40;;;24.70;39.10;;;;;;6181683;23;20428;-87
2022/08/07 02:00:22;;;;;;;1.97;1.53;;;24.70;39.30;;;;;;6157331;23;20385;-85
2022/08/07 02:02:59;;;;;;;1.40;1.30;;;24.70;39.50;;;;;;6156506;23;20491;-87
2022/08/07 02:05:52;;;;;;;1.40;1.30;;;24.70;39.50;;;;;;6182698;23;20840;-88
2022/08/07 02:08:29;;;;;;;2.07;1.70;;;24.70;39.40;;;;;;6157134;23;20428;-87
2022/08/07 02:11:00;;;;;;;1.97;1.60;;;24.70;39.40;;;;;;6182543;23;20373;-87
2022/08/07 02:13:33;;;;;;;2.10;1.23;;;24.70;39.40;;;;;;6155786;23;20491;-89
2022/08/07 02:16:24;;;;;;;2.10;1.70;;;24.70;39.60;;;;;;6157112;23;20467;-86
2022/08/07 02:19:03;;;;;;;1.60;1.40;;;24.70;39.60;;;;;;6156070;23;20440;-89
2022/08/07 02:21:54;;;;;;;2.90;1.50;;;24.70;39.50;;;;;;6183589;23;20472;-87
2022/08/07 02:24:28;;;;;;;1.40;1.23;;;24.60;39.60;;;;;;6181727;23;20751;-88
2022/08/07 02:27:00;;;;;;;1.97;1.27;;;24.60;39.80;;;;;;6156844;23;20393;-87
2022/08/07 02:29:32;;;;;;;2.27;1.83;;;24.60;39.80;;;;;;6157186;23;20498;-87
2022/08/07 02:32:11;;;;;;;2.00;1.80;;;24.60;39.70;;;;;;6180995;23;20475;-87
2022/08/07 02:34:41;;;;;;;1.83;1.60;;;24.60;39.80;;;;;;6156864;23;20397;-88
2022/08/07 02:37:20;;;;;;;3.17;1.60;;;24.60;39.70;;;;;;6156580;23;20440;-87
2022/08/07 02:39:49;;;;;;;2.40;1.83;;;24.60;39.70;;;;;;6157632;23;20772;-87
2022/08/07 02:42:39;;;;;;;2.00;1.80;;;24.60;39.70;;;;;;6155562;23;20494;-88
2022/08/07 02:45:12;;;;;;;2.30;1.50;;;24.60;39.50;;;;;;6156706;23;20388;-87
2022/08/07 02:48:00;;;;;;;3.13;1.63;;;24.60;39.70;;;;;;6155832;23;20440;-88
2022/08/07 02:50:32;;;;;;;2.80;1.80;;;24.60;39.90;;;;;;6182126;23;20412;-85
2022/08/07 02:53:08;;;;;;;1.77;1.60;;;24.60;39.80;;;;;;6182786;23;20433;-86
2022/08/07 02:55:42;;;;;;;1.60;1.50;;;24.60;39.70;;;;;;6157276;23;20420;-87
2022/08/07 02:58:33;;;;;;;1.70;1.53;;;24.60;39.80;;;;;;6181026;23;20486;-88
2022/08/07 03:01:05;;;;;;;2.07;1.87;;;24.60;39.80;;;;;;6182165;23;20439;-89
2022/08/07 03:03:43;;;;;;;2.40;1.70;;;24.60;39.90;;;;;;6155109;23;20436;-88
2022/08/07 03:06:23;;;;;;;1.70;1.60;;;24.50;39.70;;;;;;6156944;23;20698;-88
2022/08/07 03:09:01;;;;;;;1.37;1.20;;;24.50;39.80;;;;;;6181584;23;20553;-87
2022/08/07 03:11:31;;;;;;;2.27;1.60;;;24.50;39.80;;;;;;6157002;23;20397;-88
2022/08/07 03:14:09;;;;;;;2.40;1.40;;;24.50;39.90;;;;;;6155769;23;20459;-89
2022/08/07 03:16:39;;;;;;;1.90;1.40;;;24.50;39.90;;;;;;6157190;23;20413;-86
2022/08/07 03:19:10;;;;;;;1.30;1.20;;;24.50;40.00;;;;;;6157143;23;20515;-86
2022/08/07 03:21:41;;;;;;;2.13;1.53;;;24.50;40.00;;;;;;6158851;23;20393;-89
2022/08/07 03:24:19;;;;;;;2.47;1.77;;;24.50;40.00;;;;;;6158097;23;20432;-88
2022/08/07 03:26:58;;;;;;;1.50;1.40;;;24.50;40.00;;;;;;6159032;23;20455;-90
2022/08/07 03:29:39;;;;;;;1.40;1.30;;;24.50;40.00;;;;;;6183164;23;20424;-86
2022/08/07 03:32:22;;;;;;;1.93;1.83;;;24.50;39.90;;;;;;6157614;23;20431;-87
2022/08/07 03:34:55;;;;;;;2.43;2.23;;;24.50;40.00;;;;;;6158711;23;20384;-87
2022/08/07 03:37:46;;;;;;;2.83;2.03;;;24.50;40.10;;;;;;6182735;23;20428;-89
2022/08/07 03:40:28;;;;;;;2.00;1.80;;;24.50;40.10;;;;;;6159210;23;20684;-86
2022/08/07 03:43:05;;;;;;;1.73;1.63;;;24.50;40.20;;;;;;6157476;23;20443;-87
2022/08/07 03:45:45;;;;;;;2.17;1.60;;;24.50;40.10;;;;;;6158998;23;20759;-86
2022/08/07 03:48:18;;;;;;;3.20;1.70;;;24.40;40.10;;;;;;6157316;23;20439;-88
2022/08/07 03:50:47;;;;;;;2.33;1.80;;;24.50;40.20;;;;;;6185138;23;20401;-87
2022/08/07 03:53:29;;;;;;;2.23;1.87;;;24.40;40.00;;;;;;6157543;23;20958;-87
2022/08/07 03:56:21;;;;;;;1.93;1.70;;;24.40;40.00;;;;;;6158492;23;20459;-84
2022/08/07 03:59:06;;;;;;;1.90;1.63;;;24.40;40.10;;;;;;6157927;23;20435;-86
2022/08/07 04:01:45;;;;;;;2.03;1.90;;;24.40;40.20;;;;;;6158456;23;20381;-88
2022/08/07 04:04:18;;;;;;;1.70;1.50;;;24.40;40.20;;;;;;6156997;23;21037;-87
2022/08/07 04:06:52;;;;;;;2.30;1.63;;;24.40;40.20;;;;;;6159139;23;20549;-88
2022/08/07 04:09:23;;;;;;;1.93;1.60;;;24.40;40.20;;;;;;6157680;23;20436;-87
2022/08/07 04:11:57;;;;;;;1.80;1.70;;;24.40;40.20;;;;;;6158001;23;20423;-87
2022/08/07 04:14:46;;;;;;;2.50;1.73;;;24.40;40.10;;;;;;6183431;23;20441;-87
2022/08/07 04:17:20;;;;;;;1.97;1.77;;;24.40;40.20;;;;;;6157916;23;20508;-86
2022/08/07 04:19:52;;;;;;;2.30;1.73;;;24.30;40.00;;;;;;6158390;23;20373;-89
2022/08/07 04:22:26;;;;;;;1.63;1.30;;;24.30;40.10;;;;;;6157117;23;20915;-86
2022/08/07 04:25:03;;;;;;;2.10;1.50;;;24.30;40.10;;;;;;6158822;23;20866;-89
2022/08/07 04:27:40;;;;;;;2.87;1.63;;;24.30;40.20;;;;;;6157846;23;20432;-89
2022/08/07 04:30:16;;;;;;;1.93;1.80;;;24.30;40.10;;;;;;6158149;23;20380;-87
2022/08/07 04:33:21;;;;;;;2.30;1.50;;;24.30;40.00;;;;;;6156773;23;20518;-86
2022/08/07 04:35:51;;;;;;;1.97;1.60;;;24.30;40.20;;;;;;6182978;23;20951;-85
2022/08/07 04:38:26;;;;;;;2.40;1.67;;;24.30;40.20;;;;;;6182337;23;20440;-90
2022/08/07 04:40:57;;;;;;;3.33;1.90;;;24.30;40.20;;;;;;6158761;23;20374;-87
2022/08/07 04:43:36;;;;;;;1.87;1.70;;;24.30;40.10;;;;;;6181286;23;20523;-89
2022/08/07 04:46:35;;;;;;;1.53;1.40;;;24.30;40.10;;;;;;6158186;23;20391;-87
2022/08/07 04:49:37;;;;;;;2.40;2.20;;;24.30;40.20;;;;;;6181541;23;20519;-87
2022/08/07 04:52:17;;;;;;;1.47;1.37;;;24.30;40.20;;;;;;6157294;23;20512;-85
2022/08/07 04:54:53;;;;;;;1.83;1.70;;;24.30;40.20;;;;;;6158279;23;20405;-87
2022/08/07 04:57:31;;;;;;;1.93;1.77;;;24.30;40.20;;;;;;6156980;23;20519;-87
2022/08/07 05:00:25;;;;;;;2.40;1.67;;;24.30;40.40;;;;;;6158683;23;20388;-87
2022/08/07 05:03:08;;;;;;;3.43;2.30;;;24.20;40.30;;;;;;6156330;23;20506;-88
2022/08/07 05:06:07;;;;;;;2.10;1.90;;;24.20;40.20;;;;;;6158321;23;20467;-88
2022/08/07 05:08:53;;;;;;;2.17;1.67;;;24.30;40.30;;;;;;6182140;23;20515;-85
2022/08/07 05:11:32;;;;;;;2.37;2.10;;;24.20;40.20;;;;;;6157752;23;20468;-86
2022/08/07 05:14:24;;;;;;;1.70;1.30;;;24.30;40.20;;;;;;6181594;23;20810;-90
2022/08/07 05:17:18;;;;;;;2.10;1.90;;;24.20;40.30;;;;;;6157214;23;20496;-89
2022/08/07 05:20:08;;;;;;;2.40;1.57;;;24.20;40.20;;;;;;6157644;23;20442;-87
2022/08/07 05:22:41;;;;;;;1.70;1.60;;;24.20;40.40;;;;;;6181902;23;20432;-87
2022/08/07 05:25:12;;;;;;;2.30;1.67;;;24.20;40.30;;;;;;6158130;23;20381;-85
2022/08/07 05:28:02;;;;;;;3.03;1.90;;;24.10;40.30;;;;;;6156872;23;20542;-86
2022/08/07 05:30:49;;;;;;;1.80;1.50;;;24.10;40.30;;;;;;6157531;23;20871;-87
2022/08/07 05:33:21;;;;;;;1.83;1.73;;;24.10;40.30;;;;;;6156103;23;20440;-88
2022/08/07 05:35:51;;;;;;;2.40;1.73;;;24.10;40.20;;;;;;6157815;23;20396;-89
2022/08/07 05:38:22;;;;;;;2.90;1.73;;;24.20;40.50;;;;;;6156897;23;20433;-89
2022/08/07 05:41:11;;;;;;;2.77;1.87;;;24.10;40.40;;;;;;6182794;23;20377;-88
2022/08/07 05:43:48;;;;;;;2.73;1.47;;;24.10;41.60;;;;;;6156063;23;20447;-87
2022/08/07 05:46:38;;;;;;;2.70;1.80;;;24.10;40.40;;;;;;6132652;23;20401;-87
2022/08/07 05:49:08;;;;;;;1.50;1.40;;;24.10;40.50;;;;;;6156135;23;20475;-86
2022/08/07 05:51:42;;;;;;;1.80;1.70;;;24.10;40.40;;;;;;6157357;23;20401;-87
2022/08/07 05:54:17;;;;;;;3.53;1.87;;;24.10;40.50;;;;;;6181647;23;20970;-88
2022/08/07 05:57:06;;;;;;;2.43;1.70;;;24.10;40.50;;;;;;6180541;23;20381;-86
2022/08/07 05:59:38;;;;;;;1.67;1.40;;;24.10;40.50;;;;;;6158048;23;20385;-86
2022/08/07 06:02:30;;;;;;;1.50;1.30;;;24.10;40.60;;;;;;6156826;23;20437;-87
2022/08/07 06:05:05;;;;;;;2.40;1.80;;;24.10;40.60;;;;;;6157405;23;20397;-85
2022/08/07 06:07:35;;;;;;;1.33;1.23;;;24.10;40.50;;;;;;6157248;23;20499;-87
2022/08/07 06:10:27;;;;;;;2.53;1.70;;;24.10;40.50;;;;;;6157647;23;20408;-87
2022/08/07 06:12:56;;;;;;;1.73;1.63;;;24.10;40.60;;;;;;6156656;23;20447;-88
2022/08/07 06:15:26;;;;;;;1.80;1.70;;;24.10;40.80;;;;;;6157118;23;20489;-87
2022/08/07 06:18:12;;;;;;;1.23;1.13;;;24.10;40.60;;;;;;6180592;23;20520;-88
2022/08/07 06:20:44;;;;;;;1.63;1.47;;;24.10;40.60;;;;;;6158048;23;20425;-88
2022/08/07 06:23:19;;;;;;;1.67;1.57;;;24.10;40.70;;;;;;6180752;23;20926;-87
2022/08/07 06:26:12;;;;;;;1.97;1.50;;;24.10;40.60;;;;;;6157502;23;20464;-87
2022/08/07 06:28:49;;;;;;;1.87;1.60;;;24.00;40.50;;;;;;6156854;23;20471;-88
2022/08/07 06:31:21;;;;;;;2.43;1.80;;;24.10;40.70;;;;;;6157748;23;20380;-87
2022/08/07 06:34:06;;;;;;;4.70;1.50;;;24.00;40.70;;;;;;6156099;23;20511;-88
2022/08/07 06:36:35;;;;;;;1.40;1.27;;;24.00;40.60;;;;;;6182060;23;20393;-87
2022/08/07 06:39:06;;;;;;;2.37;1.77;;;24.00;40.60;;;;;;6156756;23;20441;-87
2022/08/07 06:42:02;;;;;;;1.80;1.40;;;24.00;41.80;;;;;;6156715;23;20409;-87
2022/08/07 06:44:52;;;;;;;3.07;1.97;;;24.00;40.80;;;;;;6156887;23;20520;-84
2022/08/07 06:47:22;;;;;;;2.03;1.80;;;24.00;40.80;;;;;;6156268;23;20405;-88
2022/08/07 06:49:55;;;;;;;4.30;2.13;;;24.10;40.60;;;;;;6156986;23;20384;-85
2022/08/07 06:52:35;;;;;;;3.30;2.60;;;24.10;40.10;;;;;;6156804;23;20436;-87
2022/08/07 06:55:13;;;;;;;4.30;2.37;;;24.10;39.70;;;;;;6184862;23;20388;-88
2022/08/07 06:58:06;;;;;;;3.27;2.13;;;24.20;38.90;;;;;;6182850;23;20440;-87
2022/08/07 07:00:46;;;;;;;3.70;2.20;;;24.20;38.80;;;;;;6159636;23;20374;-88
2022/08/07 07:03:20;;;;;;;2.40;2.20;;;24.20;38.70;;;;;;6157365;23;20439;-87
2022/08/07 07:06:07;;;;;;;3.87;2.67;;;24.30;38.80;;;;;;6184885;23;20387;-85
2022/08/07 07:08:38;;;;;;;3.33;2.30;;;24.30;38.80;;;;;;6182516;23;20432;-87
2022/08/07 07:11:14;;;;;;;2.80;1.70;;;24.30;38.80;;;;;;6159357;23;20376;-86
2022/08/07 07:14:04;;;;;;;4.73;2.27;;;24.30;38.90;;;;;;6158079;23;20511;-88
2022/08/07 07:16:39;;;;;;;3.73;2.10;;;24.30;38.80;;;;;;6159407;23;20380;-87
2022/08/07 07:19:26;;;;;;;2.67;2.40;;;24.30;38.80;;;;;;6182798;23;20516;-88
2022/08/07 07:22:16;;;;;;;2.87;2.23;;;24.30;38.90;;;;;;6158468;23;20417;-88
2022/08/07 07:25:06;;;;;;;2.43;1.60;;;24.30;38.40;;;;;;6185365;23;20415;-86
2022/08/07 07:27:58;;;;;;;2.93;1.90;;;24.30;38.30;;;;;;6158759;23;20425;-87
2022/08/07 07:30:36;;;;;;;2.20;2.00;;;24.30;38.10;;;;;;6159157;23;20389;-87
2022/08/07 07:33:10;;;;;;;2.07;1.87;;;24.20;38.10;;;;;;6157421;23;20818;-86
2022/08/07 07:35:42;;;;;;;4.80;2.43;;;24.20;38.00;;;;;;6159056;23;20392;-87
2022/08/07 07:38:32;;;;;;;5.03;1.90;;;24.20;37.90;;;;;;6158188;23;20448;-87
2022/08/07 07:41:04;;;;;;;3.50;1.80;;;24.20;37.70;;;;;;6159491;23;20388;-87
2022/08/07 07:43:40;;;;;;;2.63;2.33;;;24.20;37.80;;;;;;6157773;23;20440;-88
2022/08/07 07:46:32;;;;;;;3.70;2.23;;;24.20;38.00;;;;;;6158260;23;20384;-88
2022/08/07 07:49:21;;;;;;;3.73;2.33;;;24.20;37.80;;;;;;6182095;23;20452;-87
2022/08/07 07:52:11;;;;;;;4.00;1.87;;;24.20;37.60;;;;;;6158146;23;20487;-88
2022/08/07 07:54:42;;;;;;;3.70;1.93;;;24.20;37.90;;;;;;6159124;23;20400;-87
2022/08/07 07:57:21;;;;;;;4.60;2.20;;;24.20;38.00;;;;;;6182759;23;20384;-88
2022/08/07 08:00:11;;;;;;;1.87;1.70;;;24.20;37.60;;;;;;6185068;23;20483;-87
2022/08/07 08:03:02;;;;;;;2.70;1.60;;;24.10;37.60;;;;;;6157429;23;20443;-87
2022/08/07 08:05:36;;;;;;;3.90;2.20;;;24.10;37.70;;;;;;6182619;23;20400;-85
2022/08/07 08:08:27;;;;;;;3.15;1.60;;;24.10;37.50;;;;;;6156795;23;20407;-87
2022/08/07 08:11:05;;;;;;;4.40;1.70;;;24.10;37.00;;;;;;6183833;23;20534;-88
2022/08/07 08:13:39;;;;;;;2.17;1.83;;;23.90;37.00;;;;;;6157095;23;20523;-88
2022/08/07 08:16:27;;;;;;;2.50;1.63;;;23.90;37.30;;;;;;6158745;23;20388;-86
2022/08/07 08:19:02;;;;;;;1.50;1.27;;;23.90;37.80;;;;;;6181718;23;20479;-87
2022/08/07 08:27:47;;;;;;;1.23;1.03;;;23.80;38.30;;;;;;6183593;23;20452;-87
2022/08/07 08:30:25;;;;;;;2.87;1.40;;;23.80;38.40;;;;;;6158582;23;20381;-87
2022/08/07 08:32:57;;;;;;;1.77;1.43;;;23.80;38.30;;;;;;6157393;23;20463;-85
2022/08/07 08:35:28;;;;;;;2.57;1.77;;;23.80;38.30;;;;;;6184658;23;20399;-88
2022/08/07 08:38:16;;;;;;;2.57;1.30;;;23.80;38.30;;;;;;6182304;23;20432;-87
2022/08/07 08:40:52;;;;;;;1.60;1.20;;;23.80;38.30;;;;;;6158779;23;20476;-85
2022/08/07 08:43:28;;;;;;;1.57;1.43;;;23.80;38.40;;;;;;6181967;23;20447;-88
2022/08/07 08:46:14;;;;;;;1.63;1.40;;;23.80;38.40;;;;;;6158526;23;20413;-87
2022/08/07 08:48:53;;;;;;;1.47;1.37;;;23.80;38.40;;;;;;6157063;23;20413;-85
2022/08/07 08:51:30;;;;;;;2.37;1.60;;;23.80;38.40;;;;;;6158150;23;20431;-88
2022/08/07 08:54:24;;;;;;;2.80;1.37;;;23.80;38.30;;;;;;6156983;23;20506;-88
2022/08/07 08:56:54;;;;;;;2.23;1.40;;;23.80;38.50;;;;;;6182979;23;20400;-87
2022/08/07 08:59:29;;;;;;;2.37;1.40;;;23.80;38.60;;;;;;6181882;23;20494;-88
2022/08/07 09:02:17;;;;;;;2.90;1.23;;;23.80;38.40;;;;;;6182356;23;20492;-86
2022/08/07 09:05:13;;;;;;;1.63;1.50;;;23.80;38.60;;;;;;6157786;23;20397;-88
2022/08/07 09:07:49;;;;;;;1.40;1.30;;;23.80;38.60;;;;;;6183652;23;20446;-85
2022/08/07 09:10:29;;;;;;;4.00;1.23;;;23.80;38.70;;;;;;6158062;23;20455;-87
2022/08/07 09:13:09;;;;;;;1.87;1.37;;;23.80;38.70;;;;;;6156727;23;20487;-86
2022/08/07 09:15:51;;;;;;;2.40;1.30;;;23.80;38.90;;;;;;6157780;23;20412;-89
2022/08/07 09:19:17;;;;;;;1.70;1.40;;;23.80;38.90;;;;;;6156731;23;20435;-87
2022/08/07 09:22:18;;;;;;;2.57;1.70;;;23.80;38.90;;;;;;6125594;23;20504;-86
2022/08/07 09:25:12;;;;;;;1.40;1.30;;;23.80;39.00;;;;;;6157906;23;20424;-87
2022/08/07 09:27:55;;;;;;;2.10;1.40;;;23.80;39.00;;;;;;6181612;23;20435;-85
2022/08/07 09:30:37;;;;;;;1.13;1.03;;;23.80;39.00;;;;;;6157867;23;20427;-87
2022/08/07 09:33:21;;;;;;;1.13;1.03;;;23.80;39.10;;;;;;6155660;23;20516;-85
2022/08/07 09:36:15;;;;;;;1.10;1.00;;;23.80;39.10;;;;;;6158171;23;20420;-85
2022/08/07 09:38:54;;;;;;;1.60;1.23;;;23.80;39.20;;;;;;6181840;23;20486;-86
2022/08/07 09:41:35;;;;;;;1.93;1.30;;;23.80;39.10;;;;;;6182393;23;20373;-86
2022/08/07 09:44:37;;;;;;;1.17;1.03;;;23.80;39.10;;;;;;6157066;23;20747;-87
2022/08/07 09:47:41;;;;;;;2.20;1.13;;;23.80;39.10;;;;;;6156874;23;20427;-86
2022/08/07 09:50:39;;;;;;;1.40;1.30;;;23.80;39.10;;;;;;6183922;23;20385;-86
2022/08/07 09:53:10;;;;;;;1.60;0.90;;;23.80;39.10;;;;;;6156648;23;20436;-86
2022/08/07 09:55:56;;;;;;;1.63;1.40;;;23.70;39.10;;;;;;6157899;23;20389;-85
2022/08/07 09:58:59;;;;;;;2.13;1.47;;;23.80;39.40;;;;;;6155840;23;20436;-86
2022/08/07 10:01:56;;;;;;;1.70;1.00;;;23.80;39.20;;;;;;6157543;23;20436;-86
2022/08/07 10:04:39;;;;;;;1.57;1.30;;;23.80;39.20;;;;;;6180670;23;20436;-88
2022/08/07 10:07:28;;;;;;;1.70;1.20;;;23.70;39.10;;;;;;6157134;23;20381;-89
2022/08/07 10:10:19;;;;;;;2.70;1.20;;;23.80;39.20;;;;;;6158010;23;20377;-87
2022/08/07 10:13:33;;;;;;;1.47;1.03;;;23.70;39.20;;;;;;6182250;23;20776;-86
2022/08/07 10:16:34;;;;;;;1.40;1.00;;;23.70;39.00;;;;;;6172214;23;20397;-87
2022/08/07 10:19:35;;;;;;;1.87;1.40;;;23.80;39.10;;;;;;6156316;23;20439;-90
2022/08/07 10:22:29;;;;;;;1.47;1.00;;;23.70;38.90;;;;;;6156891;23;20404;-88
2022/08/07 10:25:16;;;;;;;1.20;1.10;;;23.80;38.90;;;;;;6182335;23;20459;-89
2022/08/07 10:28:08;;;;;;;1.07;0.97;;;23.80;39.10;;;;;;6156386;23;20432;-89
2022/08/07 10:30:55;;;;;;;1.43;0.90;;;23.70;39.00;;;;;;6157666;23;20384;-88
2022/08/07 10:33:47;;;;;;;1.10;1.00;;;23.70;39.00;;;;;;6155476;23;20511;-86
2022/08/07 10:36:47;;;;;;;1.00;0.90;;;23.70;39.00;;;;;;6157187;23;20878;-87
2022/08/07 10:39:34;;;;;;;1.23;1.13;;;23.80;38.90;;;;;;6156675;23;20472;-87
2022/08/07 10:42:31;;;;;;;1.50;0.90;;;23.70;38.90;;;;;;6180633;23;20443;-86
2022/08/07 10:45:15;;;;;;;1.33;0.97;;;23.80;39.10;;;;;;6181963;23;20392;-88
2022/08/07 10:47:51;;;;;;;2.00;1.00;;;23.70;38.30;;;;;;6156397;23;20428;-87
2022/08/07 10:50:31;;;;;;;0.90;0.80;;;23.80;38.50;;;;;;6181884;23;20400;-87
2022/08/07 10:53:04;;;;;;;2.00;1.20;;;23.70;38.70;;;;;;6156453;23;20444;-88
2022/08/07 10:55:49;;;;;;;1.10;1.00;;;23.70;38.50;;;;;;6182006;23;20851;-87
2022/08/07 10:58:34;;;;;;;1.40;1.00;;;23.80;38.70;;;;;;6156117;23;20456;-90
2022/08/07 11:01:25;;;;;;;1.17;1.07;;;23.80;38.30;;;;;;6157276;23;20416;-88
2022/08/07 11:04:24;;;;;;;0.93;0.90;;;23.70;38.70;;;;;;6180779;23;20490;-87
2022/08/07 11:07:06;;;;;;;0.80;0.80;;;23.80;38.40;;;;;;6183828;23;20377;-88
2022/08/07 11:09:57;;;;;;;1.20;0.90;;;23.70;38.30;;;;;;6182256;23;20471;-88
2022/08/07 11:12:45;;;;;;;1.30;1.20;;;23.80;38.30;;;;;;6155824;23;20506;-88
2022/08/07 11:15:22;;;;;;;0.80;0.80;;;23.80;38.60;;;;;;6183315;23;20396;-87
2022/08/07 11:18:04;;;;;;;1.07;0.97;;;23.70;38.40;;;;;;6181270;23;20444;-87
2022/08/07 11:20:41;;;;;;;1.30;1.00;;;23.70;38.40;;;;;;6157307;23;20416;-86
2022/08/07 11:23:20;;;;;;;1.00;0.80;;;23.80;38.30;;;;;;6156730;23;20490;-87
2022/08/07 11:26:13;;;;;;;2.50;1.00;;;23.80;38.30;;;;;;6157636;23;20384;-86
2022/08/07 11:28:47;;;;;;;1.27;1.00;;;23.80;38.30;;;;;;6155839;23;20930;-89
2022/08/07 11:31:30;;;;;;;1.17;0.80;;;23.80;38.30;;;;;;6183392;23;20375;-85
2022/08/07 11:34:11;;;;;;;1.63;0.80;;;23.80;38.30;;;;;;6155908;23;20432;-87
2022/08/07 11:36:52;;;;;;;1.60;0.97;;;23.80;38.40;;;;;;6157693;23;20388;-88
2022/08/07 11:39:36;;;;;;;1.40;0.83;;;23.80;38.30;;;;;;6156660;23;20443;-88
2022/08/07 11:42:32;;;;;;;0.90;0.90;;;23.80;38.30;;;;;;6157524;23;20424;-88
2022/08/07 11:45:16;;;;;;;0.97;0.80;;;23.80;38.30;;;;;;6183846;23;20407;-85
2022/08/07 11:48:10;;;;;;;1.80;0.80;;;23.80;38.40;;;;;;6157987;23;20494;-86
2022/08/07 11:51:13;;;;;;;1.53;1.20;;;23.80;38.30;;;;;;6159489;23;20396;-87
2022/08/07 11:54:20;;;;;;;1.10;0.80;;;23.80;38.40;;;;;;6184020;23;20436;-87
2022/08/07 11:57:07;;;;;;;1.73;1.63;;;23.80;38.30;;;;;;6159131;23;20385;-88
2022/08/07 12:00:08;;;;;;;1.10;0.80;;;23.80;38.30;;;;;;6183349;23;20404;-87
2022/08/07 12:03:15;;;;;;;1.70;0.77;;;23.80;38.30;;;;;;6184307;23;20543;-87
2022/08/07 12:06:26;;;;;;;0.90;0.73;;;23.80;37.70;;;;;;6184078;23;20424;-88
2022/08/07 12:09:13;;;;;;;1.83;0.83;;;23.80;38.40;;;;;;6172827;23;21107;-88
2022/08/07 12:11:58;;;;;;;0.70;0.60;;;23.80;38.30;;;;;;6158828;23;20432;-86
2022/08/07 12:14:52;;;;;;;0.80;0.70;;;23.80;38.30;;;;;;6158533;23;20405;-87
2022/08/07 12:17:36;;;;;;;1.00;0.63;;;23.80;38.30;;;;;;6158002;23;20431;-89
2022/08/07 12:20:10;;;;;;;0.90;0.80;;;23.80;38.30;;;;;;6158575;23;20389;-87
2022/08/07 12:23:22;;;;;;;0.90;0.83;;;23.80;38.30;;;;;;6132545;23;20771;-88
2022/08/07 12:26:16;;;;;;;1.57;1.00;;;23.90;38.40;;;;;;6159018;23;20381;-87
2022/08/07 12:29:07;;;;;;;1.60;0.80;;;23.90;38.50;;;;;;6157421;23;20428;-86
2022/08/07 12:31:41;;;;;;;0.80;0.80;;;23.90;38.50;;;;;;6158010;23;20854;-87
2022/08/07 12:34:32;;;;;;;0.93;0.90;;;24.00;38.60;;;;;;6183177;23;20512;-87
2022/08/07 12:37:02;;;;;;;1.30;0.70;;;24.00;37.90;;;;;;6158559;23;20385;-86
2022/08/07 12:39:47;;;;;;;0.70;0.70;;;24.00;37.60;;;;;;6158755;23;20459;-89
2022/08/07 12:42:24;;;;;;;1.43;0.70;;;24.00;38.60;;;;;;6182813;23;20442;-86
2022/08/07 12:45:00;;;;;;;1.27;0.73;;;24.00;37.30;;;;;;6158017;23;20381;-86
2022/08/07 12:47:42;;;;;;;0.90;0.77;;;24.00;37.20;;;;;;6157468;23;20440;-87
2022/08/07 12:50:17;;;;;;;1.00;0.83;;;24.00;36.70;;;;;;6183693;23;20395;-88
2022/08/07 12:53:12;;;;;;;0.90;0.77;;;24.10;36.80;;;;;;6158047;23;20548;-87
2022/08/07 12:55:50;;;;;;;1.20;0.80;;;24.10;37.00;;;;;;6185398;23;20369;-87
2022/08/07 12:58:36;;;;;;;1.10;0.63;;;24.10;37.10;;;;;;6157224;23;20799;-86
2022/08/07 13:01:18;;;;;;;1.40;0.90;;;24.10;37.00;;;;;;6167320;23;20428;-88
2022/08/07 13:04:02;;;;;;;0.93;0.80;;;24.10;36.60;;;;;;6186449;23;20444;-90
2022/08/07 13:06:51;;;;;;;1.43;0.80;;;24.10;36.40;;;;;;6187229;23;20369;-86
2022/08/07 13:09:45;;;;;;;1.40;1.10;;;24.10;36.10;;;;;;6161784;23;20925;-86
2022/08/07 13:12:50;;;;;;;1.20;0.90;;;24.10;36.40;;;;;;6179053;23;20459;-84
2022/08/07 13:15:28;;;;;;;1.00;0.70;;;24.20;36.20;;;;;;6153879;23;20389;-83
2022/08/07 13:18:17;;;;;;;1.37;0.80;;;24.10;35.70;;;;;;6177928;23;20475;-83
2022/08/07 13:21:04;;;;;;;1.10;0.70;;;24.20;35.80;;;;;;6182210;23;20520;-85
2022/08/07 13:23:42;;;;;;;0.73;0.67;;;24.20;35.80;;;;;;6183051;23;20519;-84
2022/08/07 13:26:38;;;;;;;2.30;0.80;;;24.20;35.80;;;;;;6158258;23;20384;-85
2022/08/07 13:29:14;;;;;;;1.43;0.90;;;24.20;35.80;;;;;;6182047;23;20420;-84
2022/08/07 13:31:48;;;;;;;2.00;1.07;;;24.30;35.90;;;;;;6182780;23;20365;-84
2022/08/07 13:34:37;;;;;;;1.00;0.90;;;24.30;35.90;;;;;;6181384;23;20487;-85
2022/08/07 13:37:18;;;;;;;0.97;0.73;;;24.30;35.70;;;;;;6182153;23;20377;-84
2022/08/07 13:40:02;;;;;;;1.17;0.80;;;24.30;35.70;;;;;;6183690;23;20832;-84
2022/08/07 13:42:52;;;;;;;2.73;1.00;;;24.30;35.70;;;;;;6156207;23;20519;-84
2022/08/07 13:45:22;;;;;;;1.17;1.00;;;24.30;35.40;;;;;;6182494;23;20416;-84
2022/08/07 13:48:12;;;;;;;2.87;0.83;;;24.30;35.20;;;;;;6156441;23;20433;-83
2022/08/07 13:51:02;;;;;;;0.80;0.70;;;24.30;35.50;;;;;;6157675;23;20388;-84
2022/08/07 13:53:53;;;;;;;1.30;0.73;;;24.30;35.30;;;;;;6182286;23;20934;-84
2022/08/07 13:56:29;;;;;;;1.00;0.80;;;24.40;35.30;;;;;;6183674;23;20704;-82
2022/08/07 13:59:14;;;;;;;1.00;0.70;;;24.40;35.40;;;;;;6157072;23;20440;-84
2022/08/07 14:01:50;;;;;;;0.73;0.70;;;24.40;35.10;;;;;;6182862;23;20416;-86
2022/08/07 14:04:32;;;;;;;0.83;0.67;;;24.40;35.10;;;;;;6156478;23;20438;-84
2022/08/07 14:07:08;;;;;;;0.80;0.70;;;24.40;34.80;;;;;;6184310;23;20841;-83
2022/08/07 14:09:39;;;;;;;1.30;1.10;;;24.40;35.00;;;;;;6157809;23;20404;-84